createdAt,value
2018-11-23T00:02:15.956Z,2.44
2018-11-23T00:04:42.881Z,2.19
2018-11-23T00:07:09.867Z,2.19
2018-11-23T00:09:36.781Z,2.12
2018-11-23T00:12:03.841Z,2.37
2018-11-23T00:14:30.752Z,2.37
2018-11-23T00:16:57.685Z,2.25
2018-11-23T00:19:24.593Z,2.19
2018-11-23T00:21:51.517Z,2.31
2018-11-23T00:24:18.451Z,2.31
2018-11-23T00:26:45.435Z,2.25
2018-11-23T00:29:12.322Z,2.00
2018-11-23T00:31:39.208Z,2.19
2018-11-23T00:34:06.151Z,2.12
2018-11-23T00:36:33.097Z,2.06
2018-11-23T00:39:00.099Z,2.12
2018-11-23T00:41:27.027Z,2.31
2018-11-23T00:43:53.967Z,2.06
2018-11-23T00:46:20.917Z,2.19
2018-11-23T00:48:47.942Z,2.37
2018-11-23T00:51:14.909Z,2.31
2018-11-23T00:53:41.926Z,2.25
2018-11-23T00:56:08.893Z,1.94
2018-11-23T00:58:35.804Z,2.25
2018-11-23T01:01:02.743Z,2.06
2018-11-23T01:03:29.665Z,2.37
2018-11-23T01:05:56.594Z,2.44
2018-11-23T01:08:23.492Z,2.37
2018-11-23T01:10:50.427Z,2.31
2018-11-23T01:13:17.374Z,2.06
2018-11-23T01:15:44.301Z,2.31
2018-11-23T01:18:11.209Z,2.06
2018-11-23T01:20:38.171Z,2.06
2018-11-23T01:23:05.101Z,2.25
2018-11-23T01:25:32.039Z,2.06
2018-11-23T01:27:58.967Z,2.00
2018-11-23T01:30:28.101Z,1.81
2018-11-23T01:32:55.068Z,2.06
2018-11-23T01:35:21.981Z,2.00
2018-11-23T01:37:48.910Z,2.00
2018-11-23T01:40:18.015Z,2.50
2018-11-23T01:42:46.406Z,2.25
2018-11-23T01:45:13.698Z,2.25
2018-11-23T01:47:40.628Z,1.94
2018-11-23T01:50:12.904Z,1.81
2018-11-23T01:52:39.860Z,1.81
2018-11-23T01:55:08.039Z,1.75
2018-11-23T01:57:35.105Z,1.75
2018-11-23T02:00:02.045Z,2.06
2018-11-23T02:02:28.957Z,2.00
2018-11-23T02:04:55.908Z,1.81
2018-11-23T02:07:23.210Z,1.94
2018-11-23T02:09:50.183Z,1.87
2018-11-23T02:12:17.115Z,2.00
2018-11-23T02:14:44.446Z,1.94
2018-11-23T02:17:11.689Z,2.06
2018-11-23T02:19:38.740Z,1.94
2018-11-23T02:22:05.677Z,1.75
2018-11-23T02:24:32.584Z,2.00
2018-11-23T02:26:59.488Z,1.94
2018-11-23T02:29:26.451Z,1.87
2018-11-23T02:31:53.383Z,2.00
2018-11-23T02:34:20.300Z,1.81
2018-11-23T02:36:47.226Z,2.06
2018-11-23T02:39:14.153Z,1.94
2018-11-23T02:41:41.147Z,1.87
2018-11-23T02:44:08.061Z,1.87
2018-11-23T02:46:34.981Z,2.12
2018-11-23T02:49:02.484Z,1.87
2018-11-23T02:51:29.393Z,1.75
2018-11-23T02:53:56.296Z,1.94
2018-11-23T02:56:23.239Z,2.00
2018-11-23T02:58:50.156Z,2.06
2018-11-23T03:01:17.138Z,2.06
2018-11-23T03:03:44.061Z,1.87
2018-11-23T03:06:11.022Z,1.94
2018-11-23T03:08:37.990Z,2.06
2018-11-23T03:11:05.347Z,2.00
2018-11-23T03:13:32.272Z,2.00
2018-11-23T03:15:59.210Z,1.94
2018-11-23T03:18:26.110Z,1.94
2018-11-23T03:20:53.025Z,1.87
2018-11-23T03:23:19.953Z,2.12
2018-11-23T03:25:47.459Z,2.00
2018-11-23T03:28:14.418Z,2.06
2018-11-23T03:30:41.365Z,2.00
2018-11-23T03:33:08.332Z,2.31
2018-11-23T03:35:35.355Z,1.94
2018-11-23T03:38:02.280Z,1.81
2018-11-23T03:40:29.195Z,1.94
2018-11-23T03:42:56.119Z,1.94
2018-11-23T03:45:23.024Z,2.31
2018-11-23T03:47:49.931Z,2.06
2018-11-23T03:50:17.296Z,1.94
2018-11-23T03:52:44.508Z,2.06
2018-11-23T03:55:11.464Z,2.06
2018-11-23T03:57:38.400Z,2.12
2018-11-23T04:00:17.089Z,2.06
2018-11-23T04:02:37.558Z,2.44
2018-11-23T04:05:05.063Z,2.12
2018-11-23T04:07:32.191Z,2.06
2018-11-23T04:09:59.119Z,2.06
2018-11-23T04:12:26.007Z,2.19
2018-11-23T04:14:52.915Z,2.06
2018-11-23T04:17:19.855Z,2.19
2018-11-23T04:19:46.801Z,2.37
2018-11-23T04:22:13.700Z,2.00
2018-11-23T04:24:40.641Z,1.94
2018-11-23T04:27:07.534Z,2.06
2018-11-23T04:29:34.451Z,2.12
2018-11-23T04:32:01.362Z,2.19
2018-11-23T04:34:28.255Z,2.31
2018-11-23T04:36:55.412Z,2.12
2018-11-23T04:39:22.310Z,2.06
2018-11-23T04:41:49.198Z,2.00
2018-11-23T04:44:16.136Z,2.00
2018-11-23T04:46:43.199Z,2.31
2018-11-23T04:49:10.136Z,1.81
2018-11-23T04:51:37.056Z,2.12
2018-11-23T04:54:04.279Z,2.06
2018-11-23T04:56:31.223Z,2.31
2018-11-23T04:58:58.137Z,2.12
2018-11-23T05:01:25.069Z,2.31
2018-11-23T05:03:52.015Z,2.25
2018-11-23T05:06:18.933Z,1.94
2018-11-23T05:08:45.871Z,1.87
2018-11-23T05:11:12.797Z,1.94
2018-11-23T05:13:39.742Z,2.06
2018-11-23T05:16:06.659Z,2.31
2018-11-23T05:18:33.557Z,1.94
2018-11-23T05:21:00.443Z,2.25
2018-11-23T05:23:27.335Z,2.00
2018-11-23T05:25:54.383Z,1.94
2018-11-23T05:28:21.291Z,2.00
2018-11-23T05:30:48.494Z,1.94
2018-11-23T05:33:15.733Z,2.37
2018-11-23T05:35:42.768Z,2.06
2018-11-23T05:38:27.639Z,2.25
2018-11-23T05:40:54.578Z,2.06
2018-11-23T05:43:21.538Z,2.31
2018-11-23T05:45:48.493Z,2.06
2018-11-23T05:48:15.498Z,2.19
2018-11-23T05:50:42.422Z,2.19
2018-11-23T05:53:09.826Z,2.31
2018-11-23T05:55:36.752Z,2.19
2018-11-23T05:58:03.734Z,2.12
2018-11-23T06:00:31.633Z,2.37
2018-11-23T06:02:58.589Z,2.31
2018-11-23T06:05:25.551Z,2.31
2018-11-23T06:07:52.607Z,2.25
2018-11-23T06:10:20.086Z,2.12
2018-11-23T06:12:47.033Z,2.12
2018-11-23T06:15:16.162Z,2.50
2018-11-23T06:17:43.579Z,2.19
2018-11-23T06:20:13.280Z,2.12
2018-11-23T06:22:40.261Z,2.12
2018-11-23T06:25:10.974Z,2.12
2018-11-23T06:27:38.211Z,2.44
2018-11-23T06:30:06.308Z,2.12
2018-11-23T06:32:44.814Z,2.19
2018-11-23T06:35:11.744Z,2.25
2018-11-23T06:37:38.691Z,2.44
2018-11-23T06:40:07.096Z,2.44
2018-11-23T06:42:34.056Z,2.50
2018-11-23T06:45:01.016Z,2.25
2018-11-23T06:47:27.972Z,2.06
2018-11-23T06:49:54.908Z,2.19
2018-11-23T06:52:21.893Z,2.12
2018-11-23T06:54:48.873Z,2.06
2018-11-23T06:57:15.809Z,2.37
2018-11-23T06:59:42.761Z,2.62
2018-11-23T07:02:09.741Z,2.56
2018-11-23T07:04:36.813Z,2.50
2018-11-23T07:07:03.991Z,2.31
2018-11-23T07:09:30.920Z,2.62
2018-11-23T07:11:58.315Z,2.62
2018-11-23T07:14:25.309Z,2.50
2018-11-23T07:16:52.309Z,2.50
2018-11-23T07:19:19.327Z,2.56
2018-11-23T07:21:46.351Z,2.50
2018-11-23T07:24:13.418Z,2.44
2018-11-23T07:26:40.386Z,2.56
2018-11-23T07:29:07.388Z,2.62
2018-11-23T07:31:34.470Z,2.69
2018-11-23T07:34:01.418Z,2.44
2018-11-23T07:36:28.386Z,2.62
2018-11-23T07:38:55.314Z,2.56
2018-11-23T07:41:34.008Z,2.37
2018-11-23T07:44:00.950Z,2.44
2018-11-23T07:46:27.914Z,2.44
2018-11-23T07:48:54.906Z,2.25
2018-11-23T07:51:22.007Z,2.56
2018-11-23T07:53:48.996Z,2.75
2018-11-23T07:56:15.979Z,2.87
2018-11-23T07:58:43.643Z,2.81
2018-11-23T08:01:10.609Z,2.50
2018-11-23T08:03:37.645Z,2.37
2018-11-23T08:06:05.481Z,2.62
2018-11-23T08:08:32.604Z,2.56
2018-11-23T08:11:02.279Z,2.81
2018-11-23T08:13:29.220Z,2.69
2018-11-23T08:15:56.277Z,3.06
2018-11-23T08:18:23.198Z,2.56
2018-11-23T08:20:50.226Z,2.69
2018-11-23T08:23:17.180Z,2.87
2018-11-23T08:25:44.125Z,2.69
2018-11-23T08:28:11.316Z,2.94
2018-11-23T08:30:38.294Z,2.75
2018-11-23T08:33:05.268Z,3.12
2018-11-23T08:35:32.212Z,2.81
2018-11-23T08:38:24.944Z,2.81
2018-11-23T08:40:51.854Z,2.94
2018-11-23T08:43:18.786Z,3.06
2018-11-23T08:45:45.748Z,3.06
2018-11-23T08:48:12.713Z,2.75
2018-11-23T08:50:39.619Z,3.00
2018-11-23T08:53:06.565Z,2.94
2018-11-23T08:55:33.485Z,2.87
2018-11-23T08:58:00.387Z,2.75
2018-11-23T09:00:28.220Z,2.81
2018-11-23T09:02:57.700Z,3.00
2018-11-23T09:05:24.679Z,3.12
2018-11-23T09:07:52.869Z,3.00
2018-11-23T09:10:21.342Z,2.75
2018-11-23T09:12:50.846Z,3.19
2018-11-23T09:15:17.792Z,2.87
2018-11-23T09:17:45.095Z,3.00
2018-11-23T09:20:12.828Z,3.19
2018-11-23T09:22:40.130Z,2.87
2018-11-23T09:25:09.524Z,3.12
2018-11-23T09:27:36.544Z,3.00
2018-11-23T09:30:05.926Z,3.37
2018-11-23T09:32:32.870Z,3.25
2018-11-23T09:34:59.833Z,3.25
2018-11-23T09:37:26.831Z,3.31
2018-11-23T09:39:53.789Z,3.12
2018-11-23T09:42:20.705Z,3.06
2018-11-23T09:44:47.633Z,3.37
2018-11-23T09:47:14.579Z,3.25
2018-11-23T09:49:41.541Z,3.19
2018-11-23T09:52:08.987Z,3.00
2018-11-23T09:54:35.903Z,2.94
2018-11-23T09:57:02.871Z,3.12
2018-11-23T09:59:29.944Z,3.12
2018-11-23T10:01:57.372Z,3.19
2018-11-23T10:04:23.812Z,3.06
2018-11-23T10:18:23.582Z,3.37
2018-11-23T10:20:50.541Z,3.25
2018-11-23T10:23:17.502Z,3.44
2018-11-23T10:25:44.420Z,3.19
2018-11-23T10:28:11.413Z,3.25
2018-11-23T10:30:38.339Z,3.44
2018-11-23T10:33:06.242Z,3.12
2018-11-23T10:35:33.360Z,3.31
2018-11-23T10:38:01.696Z,3.19
2018-11-23T10:40:34.219Z,3.50
2018-11-23T10:43:01.188Z,3.50
2018-11-23T10:50:26.151Z,3.56
2018-11-23T10:52:53.148Z,3.25
2018-11-23T10:55:22.453Z,3.44
2018-11-23T10:57:49.555Z,3.62
2018-11-23T11:00:22.872Z,3.75
2018-11-23T11:02:55.357Z,3.37
2018-11-23T11:05:29.026Z,3.56
2018-11-23T11:07:57.518Z,3.37
2018-11-23T11:10:26.281Z,3.44
2018-11-23T11:12:53.241Z,3.69
2018-11-23T11:15:20.662Z,3.50
2018-11-23T11:17:48.301Z,3.56
2018-11-23T11:20:15.313Z,3.62
2018-11-23T11:22:42.313Z,3.50
2018-11-23T11:25:10.031Z,3.56
2018-11-23T11:27:37.519Z,3.75
2018-11-23T11:30:07.126Z,3.56
2018-11-23T11:32:34.183Z,3.56
2018-11-23T11:35:01.316Z,3.81
2018-11-23T11:37:28.898Z,3.50
2018-11-23T11:39:56.018Z,3.81
2018-11-23T11:42:23.138Z,3.62
2018-11-23T11:44:50.084Z,3.75
2018-11-23T11:47:17.014Z,3.69
2018-11-23T11:49:44.008Z,3.75
2018-11-23T11:52:10.964Z,3.81
2018-11-23T11:54:37.874Z,4.00
2018-11-23T11:57:04.981Z,4.00
2018-11-23T11:59:32.007Z,3.75
2018-11-23T12:01:58.939Z,3.69
2018-11-23T12:04:25.975Z,3.87
2018-11-23T12:06:52.903Z,4.00
2018-11-23T12:09:19.933Z,3.75
2018-11-23T12:11:46.967Z,3.69
2018-11-23T12:14:13.925Z,4.00
2018-11-23T12:16:40.895Z,3.81
2018-11-23T12:19:08.084Z,4.06
2018-11-23T12:21:35.037Z,4.19
2018-11-23T12:24:03.124Z,4.00
2018-11-23T12:26:30.100Z,4.06
2018-11-23T12:28:57.696Z,4.00
2018-11-23T12:31:24.675Z,3.87
2018-11-23T12:33:51.659Z,4.00
2018-11-23T12:36:18.773Z,3.87
2018-11-23T12:38:45.798Z,3.75
2018-11-23T12:41:12.790Z,3.94
2018-11-23T12:43:39.834Z,3.94
2018-11-23T12:46:06.845Z,3.75
2018-11-23T12:48:33.873Z,3.81
2018-11-23T12:51:00.886Z,3.81
2018-11-23T12:53:27.936Z,3.81
2018-11-23T12:55:54.903Z,3.81
2018-11-23T12:58:21.893Z,3.81
2018-11-23T13:00:48.989Z,4.00
2018-11-23T13:03:15.915Z,4.00
2018-11-23T13:05:42.920Z,4.19
2018-11-23T13:08:10.719Z,3.94
2018-11-23T13:10:37.715Z,3.81
2018-11-23T13:13:04.739Z,3.81
2018-11-23T13:15:31.750Z,4.06
2018-11-23T13:17:59.108Z,3.94
2018-11-23T13:20:26.096Z,3.94
2018-11-23T13:22:53.044Z,4.06
2018-11-23T13:25:22.566Z,4.19
2018-11-23T13:27:49.516Z,3.81
2018-11-23T13:30:19.623Z,3.87
2018-11-23T13:32:46.634Z,3.69
2018-11-23T13:35:14.927Z,3.87
2018-11-23T13:37:41.974Z,4.19
2018-11-23T13:40:11.463Z,4.06
2018-11-23T13:42:38.463Z,4.06
2018-11-23T13:45:07.032Z,3.94
2018-11-23T13:47:34.168Z,4.12
2018-11-23T13:50:01.125Z,3.81
2018-11-23T13:57:23.314Z,3.94
2018-11-23T13:59:50.449Z,4.06
2018-11-23T14:02:17.608Z,3.81
2018-11-23T14:04:44.684Z,3.94
2018-11-23T14:07:11.725Z,4.12
2018-11-23T14:09:38.819Z,3.94
2018-11-23T14:12:05.817Z,3.94
2018-11-23T14:14:32.805Z,3.87
2018-11-23T14:16:59.808Z,4.06
2018-11-23T14:19:26.849Z,4.25
2018-11-23T14:21:53.921Z,4.25
2018-11-23T14:24:20.905Z,3.87
2018-11-23T14:26:47.798Z,4.06
2018-11-23T14:29:14.853Z,4.25
2018-11-23T14:31:41.803Z,4.25
2018-11-23T14:34:08.748Z,4.25
2018-11-23T14:36:35.673Z,4.31
2018-11-23T14:39:02.978Z,4.19
2018-11-23T14:41:29.911Z,4.25
2018-11-23T14:43:56.897Z,4.12
2018-11-23T14:46:23.871Z,4.06
2018-11-23T14:48:50.837Z,4.19
2018-11-23T14:51:17.875Z,4.44
2018-11-23T14:53:44.962Z,4.12
2018-11-23T14:56:11.914Z,4.31
2018-11-23T14:58:38.866Z,4.31
2018-11-23T15:01:05.800Z,4.31
2018-11-23T15:03:32.714Z,4.12
2018-11-23T15:05:59.690Z,4.25
2018-11-23T15:08:26.612Z,4.44
2018-11-23T15:10:53.690Z,4.44
2018-11-23T15:13:20.618Z,4.25
2018-11-23T15:15:47.546Z,4.44
2018-11-23T15:18:14.532Z,4.37
2018-11-23T15:20:43.663Z,4.44
2018-11-23T15:23:13.121Z,4.19
2018-11-23T15:25:40.179Z,4.06
2018-11-23T15:28:07.893Z,4.19
2018-11-23T15:30:35.814Z,4.19
2018-11-23T15:33:03.505Z,4.19
2018-11-23T15:35:31.778Z,4.12
2018-11-23T15:37:58.700Z,4.44
2018-11-23T15:40:26.861Z,4.19
2018-11-23T15:42:55.642Z,4.31
2018-11-23T15:45:23.929Z,4.25
2018-11-23T15:47:51.235Z,4.37
2018-11-23T15:50:19.648Z,4.31
2018-11-23T15:52:47.044Z,4.06
2018-11-23T15:55:16.768Z,4.06
2018-11-23T15:57:44.484Z,4.31
2018-11-23T16:00:14.678Z,4.25
2018-11-23T16:02:42.143Z,4.31
2018-11-23T16:05:10.058Z,4.06
2018-11-23T16:12:33.371Z,4.25
2018-11-23T16:15:00.295Z,4.31
2018-11-23T16:17:27.255Z,4.19
2018-11-23T16:19:54.247Z,4.50
2018-11-23T16:22:22.053Z,4.44
2018-11-23T16:24:48.994Z,4.44
2018-11-23T16:27:15.923Z,4.25
2018-11-23T16:29:42.854Z,4.25
2018-11-23T16:32:09.942Z,4.37
2018-11-23T16:34:36.897Z,4.44
2018-11-23T16:37:03.918Z,4.56
2018-11-23T16:39:30.873Z,4.50
2018-11-23T16:41:57.814Z,4.19
2018-11-23T16:44:24.764Z,4.31
2018-11-23T16:46:51.680Z,4.37
2018-11-23T16:49:19.276Z,4.50
2018-11-23T16:51:46.284Z,4.25
2018-11-23T16:54:13.284Z,4.31
2018-11-23T16:56:44.345Z,4.19
2018-11-23T16:59:11.321Z,4.50
2018-11-23T17:01:38.307Z,4.50
2018-11-23T17:04:05.483Z,4.50
2018-11-23T17:06:32.477Z,4.37
2018-11-23T17:08:59.447Z,4.31
2018-11-23T17:11:26.396Z,4.50
2018-11-23T17:13:53.351Z,4.31
2018-11-23T17:16:20.341Z,4.44
2018-11-23T17:18:47.317Z,4.31
2018-11-23T17:21:14.383Z,4.31
2018-11-23T17:23:41.355Z,4.50
2018-11-23T17:26:08.417Z,4.62
2018-11-23T17:28:35.370Z,4.37
2018-11-23T17:31:02.388Z,4.44
2018-11-23T17:33:29.312Z,4.62
2018-11-23T17:35:56.271Z,4.44
2018-11-23T17:38:23.274Z,4.37
2018-11-23T17:43:54.835Z,4.50
2018-11-23T17:46:21.830Z,4.62
2018-11-23T17:48:48.812Z,4.50
2018-11-23T17:51:15.781Z,4.75
2018-11-23T17:53:42.723Z,4.44
2018-11-23T17:56:09.778Z,4.31
2018-11-23T17:58:39.032Z,4.69
2018-11-23T18:01:06.029Z,4.56
2018-11-23T18:03:32.999Z,4.31
2018-11-23T18:06:00.014Z,4.44
2018-11-23T18:08:26.997Z,4.44
2018-11-23T18:10:54.028Z,4.62
2018-11-23T18:13:21.925Z,4.50
2018-11-23T18:15:48.992Z,4.62
2018-11-23T18:18:16.918Z,4.62
2018-11-23T18:20:43.896Z,4.75
2018-11-23T18:23:10.864Z,4.62
2018-11-23T18:25:39.116Z,4.56
2018-11-23T18:28:06.105Z,4.69
2018-11-23T18:30:34.245Z,4.87
2018-11-23T18:33:03.826Z,4.81
2018-11-23T18:35:30.865Z,4.69
2018-11-23T18:37:57.840Z,4.50
2018-11-23T18:40:24.796Z,4.62
2018-11-23T18:42:53.523Z,4.50
2018-11-23T18:45:20.539Z,4.75
2018-11-23T18:47:47.722Z,4.56
2018-11-23T18:50:15.582Z,4.62
2018-11-23T18:52:42.653Z,4.56
2018-11-23T18:55:13.643Z,4.75
2018-11-23T18:57:37.747Z,4.56
2018-11-23T19:00:07.591Z,4.50
2018-11-23T19:02:34.566Z,4.81
2018-11-23T19:05:01.580Z,4.75
2018-11-23T19:07:28.556Z,4.75
2018-11-23T19:09:55.482Z,4.62
2018-11-23T19:12:22.462Z,4.87
2018-11-23T19:14:49.490Z,4.62
2018-11-23T19:17:16.473Z,4.87
2018-11-23T19:19:43.446Z,4.69
2018-11-23T19:22:10.408Z,5.00
2018-11-23T19:24:37.371Z,4.94
2018-11-23T19:27:05.348Z,4.56
2018-11-23T19:29:32.385Z,4.87
2018-11-23T19:31:59.392Z,4.81
2018-11-23T19:34:26.375Z,4.62
2018-11-23T19:36:53.565Z,4.94
2018-11-23T19:39:20.575Z,4.75
2018-11-23T19:41:47.552Z,4.56
2018-11-23T19:44:14.627Z,4.56
2018-11-23T19:46:41.794Z,4.56
2018-11-23T19:49:08.919Z,4.56
2018-11-23T19:51:36.478Z,4.69
2018-11-23T19:54:03.450Z,4.62
2018-11-23T19:56:30.936Z,4.62
2018-11-23T19:58:58.346Z,5.06
2018-11-23T20:01:25.329Z,4.87
2018-11-23T20:03:52.329Z,4.56
2018-11-23T20:06:20.016Z,4.56
2018-11-23T20:08:47.085Z,5.12
2018-11-23T20:11:14.590Z,4.75
2018-11-23T20:13:41.581Z,4.75
2018-11-23T20:16:08.789Z,4.75
2018-11-23T20:18:35.887Z,4.50
2018-11-23T20:21:02.967Z,4.56
2018-11-23T20:23:30.113Z,4.62
2018-11-23T20:25:57.103Z,4.62
2018-11-23T20:28:24.057Z,4.81
2018-11-23T20:35:45.114Z,4.62
2018-11-23T20:38:12.130Z,4.69
2018-11-23T20:40:39.142Z,4.62
2018-11-23T20:43:06.183Z,4.87
2018-11-23T20:45:33.212Z,4.75
2018-11-23T20:48:00.248Z,4.62
2018-11-23T20:50:27.240Z,4.75
2018-11-23T20:52:54.257Z,4.62
2018-11-23T20:55:21.660Z,4.87
2018-11-23T20:57:48.753Z,4.75
2018-11-23T21:00:16.725Z,5.00
2018-11-23T21:02:44.164Z,4.87
2018-11-23T21:05:13.359Z,4.81
2018-11-23T21:07:41.459Z,4.81
2018-11-23T21:10:09.958Z,4.62
2018-11-23T21:12:37.709Z,4.50
2018-11-23T21:15:11.176Z,4.62
2018-11-23T21:17:38.235Z,4.75
2018-11-23T21:20:05.568Z,5.00
2018-11-23T21:22:32.683Z,5.12
2018-11-23T21:24:59.743Z,4.94
2018-11-23T21:27:26.736Z,4.62
2018-11-23T21:29:53.791Z,4.94
2018-11-23T21:32:20.837Z,4.81
2018-11-23T21:34:47.888Z,4.81
2018-11-23T21:37:14.925Z,4.75
2018-11-23T21:39:42.992Z,4.69
2018-11-23T21:42:09.034Z,4.62
2018-11-23T21:44:36.425Z,4.75
2018-11-23T21:47:03.581Z,4.75
2018-11-23T21:49:30.641Z,4.75
2018-11-23T21:51:57.695Z,4.81
2018-11-23T21:54:24.730Z,5.00
2018-11-23T21:56:51.801Z,5.00
2018-11-23T21:59:19.401Z,4.50
2018-11-23T22:01:46.635Z,4.44
2018-11-23T22:04:13.635Z,4.75
2018-11-23T22:06:41.050Z,4.75
2018-11-23T22:09:08.381Z,4.56
2018-11-23T22:11:36.769Z,5.06
2018-11-23T22:14:03.780Z,4.62
2018-11-23T22:16:30.832Z,4.62
2018-11-23T22:18:57.915Z,4.81
2018-11-23T22:21:25.006Z,4.50
2018-11-23T22:23:52.082Z,4.75
2018-11-23T22:26:19.056Z,4.87
2018-11-23T22:28:46.134Z,4.62
2018-11-23T22:31:13.217Z,4.50
2018-11-23T22:33:40.181Z,4.50
2018-11-23T22:36:07.188Z,4.50
2018-11-23T22:41:37.251Z,4.37
2018-11-23T22:44:04.618Z,4.56
2018-11-23T22:46:31.662Z,4.75
2018-11-23T22:49:06.674Z,4.56
2018-11-23T22:51:33.733Z,4.81
2018-11-23T22:54:01.700Z,4.69
2018-11-23T22:56:28.663Z,4.69
2018-11-23T22:58:55.851Z,4.56
2018-11-23T23:01:22.857Z,4.25
2018-11-23T23:03:49.857Z,4.25
2018-11-23T23:06:16.862Z,4.50
2018-11-23T23:08:43.966Z,4.37
2018-11-23T23:11:11.264Z,4.25
2018-11-23T23:13:38.295Z,4.00
2018-11-23T23:16:05.434Z,3.87
2018-11-23T23:18:32.583Z,4.25
2018-11-23T23:20:59.886Z,4.19
2018-11-23T23:23:28.391Z,4.19
2018-11-23T23:25:55.854Z,3.94
2018-11-23T23:28:23.789Z,4.12
2018-11-23T23:30:50.780Z,4.00
2018-11-23T23:33:17.749Z,3.87
2018-11-23T23:35:44.713Z,3.87
2018-11-23T23:38:11.701Z,3.94
2018-11-23T23:40:38.677Z,3.81
2018-11-23T23:43:05.659Z,3.69
2018-11-23T23:45:32.673Z,3.94
2018-11-23T23:47:59.649Z,4.00
2018-11-23T23:50:27.099Z,3.62
2018-11-23T23:52:54.117Z,3.81
2018-11-23T23:55:21.065Z,3.81
2018-11-23T23:57:48.129Z,3.87
